sensor_id;sensor_type;location;lat;lon;timestamp;temperature;humidity
27506;DHT22;14939;43.596;1.320;2023-08-06T00:02:12;17.20;99.90
27506;DHT22;14939;43.596;1.320;2023-08-06T00:04:38;17.30;99.90
27506;DHT22;14939;43.596;1.320;2023-08-06T00:07:03;17.20;99.90
27506;DHT22;14939;43.596;1.320;2023-08-06T00:09:32;17.10;99.90
27506;DHT22;14939;43.596;1.320;2023-08-06T00:11:57;17.10;99.90
27506;DHT22;14939;43.596;1.320;2023-08-06T00:14:23;17.20;99.90
27506;DHT22;14939;43.596;1.320;2023-08-06T00:16:51;17.20;99.90
27506;DHT22;14939;43.596;1.320;2023-08-06T00:19:17;17.30;99.90
27506;DHT22;14939;43.596;1.320;2023-08-06T00:21:42;17.30;99.90
27506;DHT22;14939;43.596;1.320;2023-08-06T00:24:08;17.20;99.90
27506;DHT22;14939;43.596;1.320;2023-08-06T00:26:34;17.20;99.90
27506;DHT22;14939;43.596;1.320;2023-08-06T00:28:59;17.30;99.90
27506;DHT22;14939;43.596;1.320;2023-08-06T00:31:25;17.30;99.90
27506;DHT22;14939;43.596;1.320;2023-08-06T00:33:50;17.20;99.90
27506;DHT22;14939;43.596;1.320;2023-08-06T00:36:16;17.20;99.90
27506;DHT22;14939;43.596;1.320;2023-08-06T00:38:41;17.20;99.90
27506;DHT22;14939;43.596;1.320;2023-08-06T00:41:07;17.10;99.90
27506;DHT22;14939;43.596;1.320;2023-08-06T00:43:35;17.10;99.90
27506;DHT22;14939;43.596;1.320;2023-08-06T00:46:00;17.10;99.90
27506;DHT22;14939;43.596;1.320;2023-08-06T00:48:26;17.10;99.90
27506;DHT22;14939;43.596;1.320;2023-08-06T00:50:52;17.00;99.90
27506;DHT22;14939;43.596;1.320;2023-08-06T00:53:18;17.00;99.90
27506;DHT22;14939;43.596;1.320;2023-08-06T00:55:44;16.90;99.90
27506;DHT22;14939;43.596;1.320;2023-08-06T00:58:10;16.90;99.90
27506;DHT22;14939;43.596;1.320;2023-08-06T01:00:35;16.90;99.90
27506;DHT22;14939;43.596;1.320;2023-08-06T01:03:01;16.90;99.90
27506;DHT22;14939;43.596;1.320;2023-08-06T01:05:26;16.90;99.90
27506;DHT22;14939;43.596;1.320;2023-08-06T01:10:44;16.80;99.90
27506;DHT22;14939;43.596;1.320;2023-08-06T01:13:26;16.80;99.90
27506;DHT22;14939;43.596;1.320;2023-08-06T01:15:54;16.70;99.90
27506;DHT22;14939;43.596;1.320;2023-08-06T01:18:22;16.70;99.90
27506;DHT22;14939;43.596;1.320;2023-08-06T01:20:48;16.70;99.90
27506;DHT22;14939;43.596;1.320;2023-08-06T01:23:15;16.70;99.90
27506;DHT22;14939;43.596;1.320;2023-08-06T01:25:44;16.70;99.90
27506;DHT22;14939;43.596;1.320;2023-08-06T01:28:13;16.70;99.90
27506;DHT22;14939;43.596;1.320;2023-08-06T01:30:41;16.70;99.90
27506;DHT22;14939;43.596;1.320;2023-08-06T01:33:10;16.60;99.90
27506;DHT22;14939;43.596;1.320;2023-08-06T01:35:38;16.60;99.90
27506;DHT22;14939;43.596;1.320;2023-08-06T01:38:04;16.50;99.90
27506;DHT22;14939;43.596;1.320;2023-08-06T01:40:29;16.50;99.90
27506;DHT22;14939;43.596;1.320;2023-08-06T01:42:55;16.50;99.90
27506;DHT22;14939;43.596;1.320;2023-08-06T01:45:21;16.50;99.90
27506;DHT22;14939;43.596;1.320;2023-08-06T01:47:46;16.50;99.90
27506;DHT22;14939;43.596;1.320;2023-08-06T01:50:12;16.50;99.90
27506;DHT22;14939;43.596;1.320;2023-08-06T01:52:37;16.50;99.90
27506;DHT22;14939;43.596;1.320;2023-08-06T01:55:09;16.60;99.90
27506;DHT22;14939;43.596;1.320;2023-08-06T01:57:35;16.60;99.90
27506;DHT22;14939;43.596;1.320;2023-08-06T02:00:03;16.60;99.90
27506;DHT22;14939;43.596;1.320;2023-08-06T02:02:28;16.70;99.90
27506;DHT22;14939;43.596;1.320;2023-08-06T02:04:54;16.70;99.90
27506;DHT22;14939;43.596;1.320;2023-08-06T02:07:20;16.70;99.90
27506;DHT22;14939;43.596;1.320;2023-08-06T02:09:45;16.70;99.90
27506;DHT22;14939;43.596;1.320;2023-08-06T02:12:11;16.70;99.90
27506;DHT22;14939;43.596;1.320;2023-08-06T02:14:36;16.70;99.90
27506;DHT22;14939;43.596;1.320;2023-08-06T02:17:02;16.80;99.90
27506;DHT22;14939;43.596;1.320;2023-08-06T02:19:28;16.80;99.90
27506;DHT22;14939;43.596;1.320;2023-08-06T02:21:53;16.80;99.90
27506;DHT22;14939;43.596;1.320;2023-08-06T02:24:19;16.80;99.90
27506;DHT22;14939;43.596;1.320;2023-08-06T02:26:44;16.90;99.90
27506;DHT22;14939;43.596;1.320;2023-08-06T02:29:10;16.90;99.90
27506;DHT22;14939;43.596;1.320;2023-08-06T02:31:36;16.90;99.90
27506;DHT22;14939;43.596;1.320;2023-08-06T02:34:01;16.90;99.90
27506;DHT22;14939;43.596;1.320;2023-08-06T02:36:27;16.90;99.90
27506;DHT22;14939;43.596;1.320;2023-08-06T02:38:54;16.90;99.90
27506;DHT22;14939;43.596;1.320;2023-08-06T02:41:20;16.90;99.90
27506;DHT22;14939;43.596;1.320;2023-08-06T02:43:46;17.00;99.90
27506;DHT22;14939;43.596;1.320;2023-08-06T02:46:11;17.00;99.90
27506;DHT22;14939;43.596;1.320;2023-08-06T02:48:40;16.90;99.90
27506;DHT22;14939;43.596;1.320;2023-08-06T02:51:05;16.90;99.90
27506;DHT22;14939;43.596;1.320;2023-08-06T02:53:31;16.90;99.90
27506;DHT22;14939;43.596;1.320;2023-08-06T02:55:56;16.90;99.90
27506;DHT22;14939;43.596;1.320;2023-08-06T02:58:22;16.90;99.90
27506;DHT22;14939;43.596;1.320;2023-08-06T03:01:04;16.90;99.90
27506;DHT22;14939;43.596;1.320;2023-08-06T03:03:31;16.90;99.90
27506;DHT22;14939;43.596;1.320;2023-08-06T03:05:56;16.90;99.90
27506;DHT22;14939;43.596;1.320;2023-08-06T03:08:22;17.00;99.90
27506;DHT22;14939;43.596;1.320;2023-08-06T03:10:48;17.00;99.90
27506;DHT22;14939;43.596;1.320;2023-08-06T03:13:14;17.00;99.90
27506;DHT22;14939;43.596;1.320;2023-08-06T03:15:39;16.90;99.90
27506;DHT22;14939;43.596;1.320;2023-08-06T03:18:05;17.00;99.90
27506;DHT22;14939;43.596;1.320;2023-08-06T03:20:31;16.90;99.90
27506;DHT22;14939;43.596;1.320;2023-08-06T03:23:00;16.90;99.90
27506;DHT22;14939;43.596;1.320;2023-08-06T03:25:26;16.90;99.90
27506;DHT22;14939;43.596;1.320;2023-08-06T03:27:51;16.90;99.90
27506;DHT22;14939;43.596;1.320;2023-08-06T03:30:17;16.90;99.90
27506;DHT22;14939;43.596;1.320;2023-08-06T03:32:42;16.80;99.90
27506;DHT22;14939;43.596;1.320;2023-08-06T03:35:08;16.80;99.90
27506;DHT22;14939;43.596;1.320;2023-08-06T03:37:33;16.80;99.90
27506;DHT22;14939;43.596;1.320;2023-08-06T03:40:02;16.80;99.90
27506;DHT22;14939;43.596;1.320;2023-08-06T03:42:28;16.80;99.90
27506;DHT22;14939;43.596;1.320;2023-08-06T03:44:53;16.80;99.90
27506;DHT22;14939;43.596;1.320;2023-08-06T03:47:19;16.80;99.90
27506;DHT22;14939;43.596;1.320;2023-08-06T03:49:48;16.80;99.90
27506;DHT22;14939;43.596;1.320;2023-08-06T03:52:15;16.80;99.90
27506;DHT22;14939;43.596;1.320;2023-08-06T03:54:40;16.80;99.90
27506;DHT22;14939;43.596;1.320;2023-08-06T03:57:08;16.80;99.90
27506;DHT22;14939;43.596;1.320;2023-08-06T03:59:34;16.80;99.90
27506;DHT22;14939;43.596;1.320;2023-08-06T04:02:02;16.80;99.90
27506;DHT22;14939;43.596;1.320;2023-08-06T04:04:27;16.80;99.90
27506;DHT22;14939;43.596;1.320;2023-08-06T04:06:53;16.80;99.90
27506;DHT22;14939;43.596;1.320;2023-08-06T04:09:18;16.90;99.90
27506;DHT22;14939;43.596;1.320;2023-08-06T04:11:44;16.90;99.90
27506;DHT22;14939;43.596;1.320;2023-08-06T04:14:10;16.90;99.90
27506;DHT22;14939;43.596;1.320;2023-08-06T04:16:35;16.90;99.90
27506;DHT22;14939;43.596;1.320;2023-08-06T04:19:01;16.80;99.90
27506;DHT22;14939;43.596;1.320;2023-08-06T04:21:26;16.80;99.90
27506;DHT22;14939;43.596;1.320;2023-08-06T04:23:55;16.80;99.90
27506;DHT22;14939;43.596;1.320;2023-08-06T04:26:21;16.70;99.90
27506;DHT22;14939;43.596;1.320;2023-08-06T04:28:46;16.60;99.90
27506;DHT22;14939;43.596;1.320;2023-08-06T04:31:12;16.60;99.90
27506;DHT22;14939;43.596;1.320;2023-08-06T04:33:37;16.60;99.90
27506;DHT22;14939;43.596;1.320;2023-08-06T04:36:06;16.50;99.90
27506;DHT22;14939;43.596;1.320;2023-08-06T04:38:31;16.50;99.90
27506;DHT22;14939;43.596;1.320;2023-08-06T04:40:57;16.50;99.90
27506;DHT22;14939;43.596;1.320;2023-08-06T04:43:23;16.50;99.90
27506;DHT22;14939;43.596;1.320;2023-08-06T04:45:48;16.60;99.90
27506;DHT22;14939;43.596;1.320;2023-08-06T04:48:14;16.50;99.90
27506;DHT22;14939;43.596;1.320;2023-08-06T04:50:46;16.50;99.90
27506;DHT22;14939;43.596;1.320;2023-08-06T04:53:12;16.50;99.90
27506;DHT22;14939;43.596;1.320;2023-08-06T04:55:37;16.50;99.90
27506;DHT22;14939;43.596;1.320;2023-08-06T04:58:03;16.50;99.90
27506;DHT22;14939;43.596;1.320;2023-08-06T05:00:29;16.40;99.90
27506;DHT22;14939;43.596;1.320;2023-08-06T05:02:54;16.40;99.90
27506;DHT22;14939;43.596;1.320;2023-08-06T05:05:20;16.50;99.90
27506;DHT22;14939;43.596;1.320;2023-08-06T05:07:49;16.50;99.90
27506;DHT22;14939;43.596;1.320;2023-08-06T05:10:15;16.40;99.90
27506;DHT22;14939;43.596;1.320;2023-08-06T05:12:40;16.40;99.90
27506;DHT22;14939;43.596;1.320;2023-08-06T05:15:06;16.40;99.90
27506;DHT22;14939;43.596;1.320;2023-08-06T05:17:32;16.40;99.90
27506;DHT22;14939;43.596;1.320;2023-08-06T05:19:58;16.50;99.90
27506;DHT22;14939;43.596;1.320;2023-08-06T05:22:23;16.50;99.90
27506;DHT22;14939;43.596;1.320;2023-08-06T05:24:49;16.50;99.90
27506;DHT22;14939;43.596;1.320;2023-08-06T05:27:14;16.50;99.90
27506;DHT22;14939;43.596;1.320;2023-08-06T05:29:40;16.50;99.90
27506;DHT22;14939;43.596;1.320;2023-08-06T05:32:06;16.50;99.90
27506;DHT22;14939;43.596;1.320;2023-08-06T05:34:31;16.50;99.90
27506;DHT22;14939;43.596;1.320;2023-08-06T05:36:57;16.50;99.90
27506;DHT22;14939;43.596;1.320;2023-08-06T05:39:22;16.50;99.90
27506;DHT22;14939;43.596;1.320;2023-08-06T05:41:48;16.60;99.90
27506;DHT22;14939;43.596;1.320;2023-08-06T05:44:14;16.60;99.90
27506;DHT22;14939;43.596;1.320;2023-08-06T05:46:39;16.60;99.90
27506;DHT22;14939;43.596;1.320;2023-08-06T05:49:05;16.60;99.90
27506;DHT22;14939;43.596;1.320;2023-08-06T05:51:30;16.60;99.90
27506;DHT22;14939;43.596;1.320;2023-08-06T05:53:56;16.60;99.90
27506;DHT22;14939;43.596;1.320;2023-08-06T05:56:22;16.60;99.90
27506;DHT22;14939;43.596;1.320;2023-08-06T05:58:47;16.60;99.90
27506;DHT22;14939;43.596;1.320;2023-08-06T06:01:14;16.60;99.90
27506;DHT22;14939;43.596;1.320;2023-08-06T06:03:39;16.60;99.90
27506;DHT22;14939;43.596;1.320;2023-08-06T06:06:05;16.60;99.90
27506;DHT22;14939;43.596;1.320;2023-08-06T06:08:30;16.70;99.90
27506;DHT22;14939;43.596;1.320;2023-08-06T06:11:01;16.70;99.90
27506;DHT22;14939;43.596;1.320;2023-08-06T06:13:29;16.70;99.90
27506;DHT22;14939;43.596;1.320;2023-08-06T06:15:55;16.70;99.90
27506;DHT22;14939;43.596;1.320;2023-08-06T06:18:23;16.70;99.90
27506;DHT22;14939;43.596;1.320;2023-08-06T06:20:49;16.80;99.90
27506;DHT22;14939;43.596;1.320;2023-08-06T06:23:15;16.80;99.90
27506;DHT22;14939;43.596;1.320;2023-08-06T06:25:47;16.90;99.90
27506;DHT22;14939;43.596;1.320;2023-08-06T06:28:13;16.90;99.90
27506;DHT22;14939;43.596;1.320;2023-08-06T06:30:41;16.90;99.90
27506;DHT22;14939;43.596;1.320;2023-08-06T06:33:07;16.90;99.90
27506;DHT22;14939;43.596;1.320;2023-08-06T06:35:33;16.90;99.90
27506;DHT22;14939;43.596;1.320;2023-08-06T06:37:58;16.90;99.90
27506;DHT22;14939;43.596;1.320;2023-08-06T06:40:25;17.00;99.90
27506;DHT22;14939;43.596;1.320;2023-08-06T06:42:50;17.00;99.90
27506;DHT22;14939;43.596;1.320;2023-08-06T06:45:16;17.10;99.90
27506;DHT22;14939;43.596;1.320;2023-08-06T06:47:41;17.10;99.90
27506;DHT22;14939;43.596;1.320;2023-08-06T06:50:07;17.20;99.90
27506;DHT22;14939;43.596;1.320;2023-08-06T06:52:33;17.20;99.90
27506;DHT22;14939;43.596;1.320;2023-08-06T06:54:58;17.20;99.90
27506;DHT22;14939;43.596;1.320;2023-08-06T06:57:24;17.30;99.90
27506;DHT22;14939;43.596;1.320;2023-08-06T06:59:49;17.20;99.90
27506;DHT22;14939;43.596;1.320;2023-08-06T07:02:15;17.30;99.90
27506;DHT22;14939;43.596;1.320;2023-08-06T07:04:40;17.40;99.90
27506;DHT22;14939;43.596;1.320;2023-08-06T07:07:06;17.40;99.90
27506;DHT22;14939;43.596;1.320;2023-08-06T07:09:31;17.40;99.90
27506;DHT22;14939;43.596;1.320;2023-08-06T07:11:57;17.40;99.90
27506;DHT22;14939;43.596;1.320;2023-08-06T07:14:24;17.50;99.90
27506;DHT22;14939;43.596;1.320;2023-08-06T07:16:49;17.50;99.90
27506;DHT22;14939;43.596;1.320;2023-08-06T07:19:15;17.60;99.90
27506;DHT22;14939;43.596;1.320;2023-08-06T07:21:40;17.60;99.90
27506;DHT22;14939;43.596;1.320;2023-08-06T07:24:06;17.60;99.90
27506;DHT22;14939;43.596;1.320;2023-08-06T07:26:31;17.60;99.90
27506;DHT22;14939;43.596;1.320;2023-08-06T07:28:57;17.50;99.90
27506;DHT22;14939;43.596;1.320;2023-08-06T07:31:22;17.60;99.90
27506;DHT22;14939;43.596;1.320;2023-08-06T07:33:48;17.80;99.90
27506;DHT22;14939;43.596;1.320;2023-08-06T07:36:14;17.90;99.90
27506;DHT22;14939;43.596;1.320;2023-08-06T07:38:40;17.90;99.90
27506;DHT22;14939;43.596;1.320;2023-08-06T07:41:05;17.90;99.90
27506;DHT22;14939;43.596;1.320;2023-08-06T07:43:31;18.00;99.90
27506;DHT22;14939;43.596;1.320;2023-08-06T07:45:57;17.90;99.90
27506;DHT22;14939;43.596;1.320;2023-08-06T07:48:23;18.00;99.90
27506;DHT22;14939;43.596;1.320;2023-08-06T07:50:51;18.00;99.90
27506;DHT22;14939;43.596;1.320;2023-08-06T07:53:19;17.90;99.90
27506;DHT22;14939;43.596;1.320;2023-08-06T07:55:47;18.00;99.90
27506;DHT22;14939;43.596;1.320;2023-08-06T07:58:13;18.00;99.90
27506;DHT22;14939;43.596;1.320;2023-08-06T08:00:39;18.00;99.90
27506;DHT22;14939;43.596;1.320;2023-08-06T08:03:07;18.10;99.90
27506;DHT22;14939;43.596;1.320;2023-08-06T08:05:33;18.20;99.90
27506;DHT22;14939;43.596;1.320;2023-08-06T08:07:58;18.30;99.90
27506;DHT22;14939;43.596;1.320;2023-08-06T08:10:24;18.40;99.90
27506;DHT22;14939;43.596;1.320;2023-08-06T08:12:49;18.40;99.90
27506;DHT22;14939;43.596;1.320;2023-08-06T08:15:15;18.30;99.90
27506;DHT22;14939;43.596;1.320;2023-08-06T08:17:41;18.50;99.90
27506;DHT22;14939;43.596;1.320;2023-08-06T08:20:06;18.30;99.90
27506;DHT22;14939;43.596;1.320;2023-08-06T08:22:32;18.20;99.90
27506;DHT22;14939;43.596;1.320;2023-08-06T08:24:58;18.50;99.90
27506;DHT22;14939;43.596;1.320;2023-08-06T08:27:23;18.40;99.90
27506;DHT22;14939;43.596;1.320;2023-08-06T08:29:49;18.50;99.60
27506;DHT22;14939;43.596;1.320;2023-08-06T08:32:14;18.60;98.00
27506;DHT22;14939;43.596;1.320;2023-08-06T08:34:40;18.50;97.40
27506;DHT22;14939;43.596;1.320;2023-08-06T08:37:06;18.80;97.30
27506;DHT22;14939;43.596;1.320;2023-08-06T08:39:31;18.70;96.60
27506;DHT22;14939;43.596;1.320;2023-08-06T08:41:57;18.80;96.20
27506;DHT22;14939;43.596;1.320;2023-08-06T08:44:22;18.90;96.50
27506;DHT22;14939;43.596;1.320;2023-08-06T08:46:50;18.80;95.30
27506;DHT22;14939;43.596;1.320;2023-08-06T08:49:15;18.90;95.90
27506;DHT22;14939;43.596;1.320;2023-08-06T08:51:42;19.00;95.30
27506;DHT22;14939;43.596;1.320;2023-08-06T08:54:08;19.30;94.40
27506;DHT22;14939;43.596;1.320;2023-08-06T08:56:36;19.40;93.80
27506;DHT22;14939;43.596;1.320;2023-08-06T08:59:02;19.40;92.80
27506;DHT22;14939;43.596;1.320;2023-08-06T09:01:27;19.40;92.60
27506;DHT22;14939;43.596;1.320;2023-08-06T09:03:54;19.30;92.40
27506;DHT22;14939;43.596;1.320;2023-08-06T09:06:20;19.20;92.90
27506;DHT22;14939;43.596;1.320;2023-08-06T09:09:02;19.30;91.80
27506;DHT22;14939;43.596;1.320;2023-08-06T09:11:32;19.30;92.20
27506;DHT22;14939;43.596;1.320;2023-08-06T09:14:05;19.50;90.40
27506;DHT22;14939;43.596;1.320;2023-08-06T09:16:33;19.50;88.70
27506;DHT22;14939;43.596;1.320;2023-08-06T09:19:06;19.50;88.30
27506;DHT22;14939;43.596;1.320;2023-08-06T09:21:31;19.20;90.10
27506;DHT22;14939;43.596;1.320;2023-08-06T09:23:58;19.40;90.70
27506;DHT22;14939;43.596;1.320;2023-08-06T09:26:24;19.80;88.80
27506;DHT22;14939;43.596;1.320;2023-08-06T09:28:50;20.00;87.50
27506;DHT22;14939;43.596;1.320;2023-08-06T09:31:17;19.70;88.90
27506;DHT22;14939;43.596;1.320;2023-08-06T09:33:43;19.40;90.10
27506;DHT22;14939;43.596;1.320;2023-08-06T09:36:10;19.50;89.70
27506;DHT22;14939;43.596;1.320;2023-08-06T09:38:39;20.00;86.80
27506;DHT22;14939;43.596;1.320;2023-08-06T09:41:05;20.30;86.00
27506;DHT22;14939;43.596;1.320;2023-08-06T09:43:39;20.30;84.70
27506;DHT22;14939;43.596;1.320;2023-08-06T09:46:10;20.30;82.60
27506;DHT22;14939;43.596;1.320;2023-08-06T09:48:35;20.30;81.80
27506;DHT22;14939;43.596;1.320;2023-08-06T09:51:01;20.10;81.60
27506;DHT22;14939;43.596;1.320;2023-08-06T09:53:27;20.20;81.50
27506;DHT22;14939;43.596;1.320;2023-08-06T09:55:54;20.30;81.10
27506;DHT22;14939;43.596;1.320;2023-08-06T09:58:20;20.20;80.90
27506;DHT22;14939;43.596;1.320;2023-08-06T10:00:47;20.40;79.60
27506;DHT22;14939;43.596;1.320;2023-08-06T10:03:13;20.60;77.90
27506;DHT22;14939;43.596;1.320;2023-08-06T10:05:39;20.20;77.70
27506;DHT22;14939;43.596;1.320;2023-08-06T10:08:05;20.00;78.40
27506;DHT22;14939;43.596;1.320;2023-08-06T10:10:32;19.60;80.00
27506;DHT22;14939;43.596;1.320;2023-08-06T10:12:58;20.30;78.60
27506;DHT22;14939;43.596;1.320;2023-08-06T10:15:28;20.70;75.10
27506;DHT22;14939;43.596;1.320;2023-08-06T10:17:56;20.80;73.30
27506;DHT22;14939;43.596;1.320;2023-08-06T10:20:22;20.40;74.20
27506;DHT22;14939;43.596;1.320;2023-08-06T10:23:04;20.60;73.80
27506;DHT22;14939;43.596;1.320;2023-08-06T10:25:30;21.00;71.40
27506;DHT22;14939;43.596;1.320;2023-08-06T10:27:55;21.30;68.90
27506;DHT22;14939;43.596;1.320;2023-08-06T10:30:31;21.20;69.70
27506;DHT22;14939;43.596;1.320;2023-08-06T10:33:01;20.60;69.40
27506;DHT22;14939;43.596;1.320;2023-08-06T10:35:45;20.50;70.40
27506;DHT22;14939;43.596;1.320;2023-08-06T10:38:21;20.40;69.60
27506;DHT22;14939;43.596;1.320;2023-08-06T10:43:26;20.80;69.60
27506;DHT22;14939;43.596;1.320;2023-08-06T10:45:52;21.00;67.70
27506;DHT22;14939;43.596;1.320;2023-08-06T10:51:13;20.80;68.30
27506;DHT22;14939;43.596;1.320;2023-08-06T10:53:42;21.80;66.90
27506;DHT22;14939;43.596;1.320;2023-08-06T10:56:12;21.60;62.60
27506;DHT22;14939;43.596;1.320;2023-08-06T10:58:37;21.30;62.70
27506;DHT22;14939;43.596;1.320;2023-08-06T11:01:03;21.20;64.60
27506;DHT22;14939;43.596;1.320;2023-08-06T11:03:28;21.00;64.10
27506;DHT22;14939;43.596;1.320;2023-08-06T11:05:54;21.00;64.30
27506;DHT22;14939;43.596;1.320;2023-08-06T11:08:24;20.80;64.10
27506;DHT22;14939;43.596;1.320;2023-08-06T11:10:50;21.20;64.00
27506;DHT22;14939;43.596;1.320;2023-08-06T11:13:18;21.60;61.00
27506;DHT22;14939;43.596;1.320;2023-08-06T11:15:45;21.30;60.40
27506;DHT22;14939;43.596;1.320;2023-08-06T11:18:10;21.00;62.60
27506;DHT22;14939;43.596;1.320;2023-08-06T11:20:36;21.20;61.40
27506;DHT22;14939;43.596;1.320;2023-08-06T11:23:02;21.30;62.60
27506;DHT22;14939;43.596;1.320;2023-08-06T11:25:28;21.00;63.00
27506;DHT22;14939;43.596;1.320;2023-08-06T11:27:54;21.00;62.30
27506;DHT22;14939;43.596;1.320;2023-08-06T11:33:26;21.70;60.30
27506;DHT22;14939;43.596;1.320;2023-08-06T11:35:52;22.10;57.60
27506;DHT22;14939;43.596;1.320;2023-08-06T11:38:18;22.40;57.20
27506;DHT22;14939;43.596;1.320;2023-08-06T11:40:47;22.20;57.20
27506;DHT22;14939;43.596;1.320;2023-08-06T11:43:13;21.80;57.70
27506;DHT22;14939;43.596;1.320;2023-08-06T11:45:40;21.50;56.40
27506;DHT22;14939;43.596;1.320;2023-08-06T11:48:06;21.20;56.70
27506;DHT22;14939;43.596;1.320;2023-08-06T11:50:36;20.90;57.00
27506;DHT22;14939;43.596;1.320;2023-08-06T11:53:02;21.20;56.00
27506;DHT22;14939;43.596;1.320;2023-08-06T11:55:28;21.70;56.10
27506;DHT22;14939;43.596;1.320;2023-08-06T11:57:54;22.00;54.30
27506;DHT22;14939;43.596;1.320;2023-08-06T12:00:20;22.20;53.30
27506;DHT22;14939;43.596;1.320;2023-08-06T12:02:48;22.20;50.00
27506;DHT22;14939;43.596;1.320;2023-08-06T12:05:15;22.30;49.30
27506;DHT22;14939;43.596;1.320;2023-08-06T12:07:42;22.20;49.50
27506;DHT22;14939;43.596;1.320;2023-08-06T12:10:08;21.90;51.00
27506;DHT22;14939;43.596;1.320;2023-08-06T12:12:34;22.10;49.90
27506;DHT22;14939;43.596;1.320;2023-08-06T12:15:00;22.60;49.50
27506;DHT22;14939;43.596;1.320;2023-08-06T12:17:26;23.10;48.10
27506;DHT22;14939;43.596;1.320;2023-08-06T12:19:51;23.10;48.30
27506;DHT22;14939;43.596;1.320;2023-08-06T12:22:17;23.60;47.30
27506;DHT22;14939;43.596;1.320;2023-08-06T12:24:43;23.10;44.70
27506;DHT22;14939;43.596;1.320;2023-08-06T12:27:09;22.50;46.10
27506;DHT22;14939;43.596;1.320;2023-08-06T12:29:35;22.10;46.80
27506;DHT22;14939;43.596;1.320;2023-08-06T12:32:01;22.20;46.70
27506;DHT22;14939;43.596;1.320;2023-08-06T12:34:27;22.40;46.70
27506;DHT22;14939;43.596;1.320;2023-08-06T12:36:52;22.40;46.40
27506;DHT22;14939;43.596;1.320;2023-08-06T12:39:18;21.90;46.80
27506;DHT22;14939;43.596;1.320;2023-08-06T12:41:43;22.00;47.50
27506;DHT22;14939;43.596;1.320;2023-08-06T12:44:11;22.30;46.60
27506;DHT22;14939;43.596;1.320;2023-08-06T12:46:37;22.70;44.80
27506;DHT22;14939;43.596;1.320;2023-08-06T12:49:02;22.90;43.30
27506;DHT22;14939;43.596;1.320;2023-08-06T12:51:29;23.40;42.10
27506;DHT22;14939;43.596;1.320;2023-08-06T12:53:54;23.60;41.40
27506;DHT22;14939;43.596;1.320;2023-08-06T12:56:20;23.30;40.80
27506;DHT22;14939;43.596;1.320;2023-08-06T12:58:45;22.80;42.50
27506;DHT22;14939;43.596;1.320;2023-08-06T13:01:11;22.70;43.60
27506;DHT22;14939;43.596;1.320;2023-08-06T13:03:36;22.40;44.80
27506;DHT22;14939;43.596;1.320;2023-08-06T13:06:02;22.60;44.70
27506;DHT22;14939;43.596;1.320;2023-08-06T13:08:28;23.20;43.40
27506;DHT22;14939;43.596;1.320;2023-08-06T13:10:53;23.40;41.60
27506;DHT22;14939;43.596;1.320;2023-08-06T13:13:19;22.80;42.30
27506;DHT22;14939;43.596;1.320;2023-08-06T13:15:44;22.70;43.00
27506;DHT22;14939;43.596;1.320;2023-08-06T13:18:10;22.50;43.60
27506;DHT22;14939;43.596;1.320;2023-08-06T13:20:37;22.60;43.50
27506;DHT22;14939;43.596;1.320;2023-08-06T13:23:03;22.30;43.30
27506;DHT22;14939;43.596;1.320;2023-08-06T13:25:28;22.50;42.80
27506;DHT22;14939;43.596;1.320;2023-08-06T13:27:54;22.90;42.00
27506;DHT22;14939;43.596;1.320;2023-08-06T13:30:20;23.20;40.70
27506;DHT22;14939;43.596;1.320;2023-08-06T13:32:45;23.70;40.20
27506;DHT22;14939;43.596;1.320;2023-08-06T13:35:11;24.00;38.10
27506;DHT22;14939;43.596;1.320;2023-08-06T13:37:37;24.00;37.20
27506;DHT22;14939;43.596;1.320;2023-08-06T13:40:03;23.60;34.80
27506;DHT22;14939;43.596;1.320;2023-08-06T13:42:28;23.50;35.90
27506;DHT22;14939;43.596;1.320;2023-08-06T13:44:54;23.40;38.30
27506;DHT22;14939;43.596;1.320;2023-08-06T13:47:27;23.20;38.80
27506;DHT22;14939;43.596;1.320;2023-08-06T13:49:53;22.80;40.50
27506;DHT22;14939;43.596;1.320;2023-08-06T13:52:18;22.90;42.20
27506;DHT22;14939;43.596;1.320;2023-08-06T13:54:44;23.20;39.90
27506;DHT22;14939;43.596;1.320;2023-08-06T13:57:09;23.10;40.90
27506;DHT22;14939;43.596;1.320;2023-08-06T13:59:35;23.10;41.20
27506;DHT22;14939;43.596;1.320;2023-08-06T14:02:01;23.00;40.90
27506;DHT22;14939;43.596;1.320;2023-08-06T14:04:26;23.00;41.70
27506;DHT22;14939;43.596;1.320;2023-08-06T14:06:52;23.20;41.30
27506;DHT22;14939;43.596;1.320;2023-08-06T14:09:17;23.30;40.40
27506;DHT22;14939;43.596;1.320;2023-08-06T14:11:44;23.30;40.90
27506;DHT22;14939;43.596;1.320;2023-08-06T14:14:10;23.10;41.40
27506;DHT22;14939;43.596;1.320;2023-08-06T14:16:36;22.80;42.10
27506;DHT22;14939;43.596;1.320;2023-08-06T14:19:02;22.90;42.70
27506;DHT22;14939;43.596;1.320;2023-08-06T14:21:27;22.80;42.80
27506;DHT22;14939;43.596;1.320;2023-08-06T14:23:53;23.00;39.70
27506;DHT22;14939;43.596;1.320;2023-08-06T14:26:18;23.40;41.00
27506;DHT22;14939;43.596;1.320;2023-08-06T14:28:44;23.30;39.10
27506;DHT22;14939;43.596;1.320;2023-08-06T14:31:10;23.20;38.80
27506;DHT22;14939;43.596;1.320;2023-08-06T14:33:36;23.40;38.90
27506;DHT22;14939;43.596;1.320;2023-08-06T14:36:02;23.80;37.80
27506;DHT22;14939;43.596;1.320;2023-08-06T14:38:27;24.00;37.90
27506;DHT22;14939;43.596;1.320;2023-08-06T14:40:53;23.80;37.50
27506;DHT22;14939;43.596;1.320;2023-08-06T14:43:18;23.60;38.20
27506;DHT22;14939;43.596;1.320;2023-08-06T14:45:44;23.60;38.50
27506;DHT22;14939;43.596;1.320;2023-08-06T14:48:10;23.50;38.80
27506;DHT22;14939;43.596;1.320;2023-08-06T14:50:36;23.30;38.50
27506;DHT22;14939;43.596;1.320;2023-08-06T14:53:02;23.50;38.10
27506;DHT22;14939;43.596;1.320;2023-08-06T14:55:28;23.60;37.80
27506;DHT22;14939;43.596;1.320;2023-08-06T14:57:53;23.90;35.90
27506;DHT22;14939;43.596;1.320;2023-08-06T15:00:19;24.00;33.70
27506;DHT22;14939;43.596;1.320;2023-08-06T15:02:45;24.30;34.60
27506;DHT22;14939;43.596;1.320;2023-08-06T15:05:11;26.00;32.20
27506;DHT22;14939;43.596;1.320;2023-08-06T15:07:36;28.30;28.10
27506;DHT22;14939;43.596;1.320;2023-08-06T15:10:03;26.90;27.20
27506;DHT22;14939;43.596;1.320;2023-08-06T15:12:29;24.60;31.20
27506;DHT22;14939;43.596;1.320;2023-08-06T15:14:54;24.10;32.90
27506;DHT22;14939;43.596;1.320;2023-08-06T15:17:22;23.40;34.80
27506;DHT22;14939;43.596;1.320;2023-08-06T15:19:48;22.90;35.90
27506;DHT22;14939;43.596;1.320;2023-08-06T15:22:14;23.10;36.20
27506;DHT22;14939;43.596;1.320;2023-08-06T15:24:39;23.00;36.50
27506;DHT22;14939;43.596;1.320;2023-08-06T15:27:07;23.30;35.90
27506;DHT22;14939;43.596;1.320;2023-08-06T15:29:33;23.30;36.00
27506;DHT22;14939;43.596;1.320;2023-08-06T15:31:59;26.90;30.40
27506;DHT22;14939;43.596;1.320;2023-08-06T15:34:24;25.40;29.80
27506;DHT22;14939;43.596;1.320;2023-08-06T15:36:50;24.70;30.90